Time;durP1;ratioP1;P1;durP2;ratioP2;P2;SDS_P1;SDS_P2;PMS_P1;PMS_P2;Temp;Humidity;BMP_temperature;BMP_pressure;BME280_temperature;BME280_humidity;BME280_pressure;Samples;Min_cycle;Max_cycle;Signal;HPM_P1;HPM_P2
2022/03/07 00:00:43;;;;;;;9.27;8.53;;;;;;;-0.03;56.37;99215.50;4138461;28;20206;-46
2022/03/07 00:02:47;;;;;;;8.93;8.27;;;;;;;-0.01;56.44;99218.00;4145337;28;20241;-47
2022/03/07 00:04:49;;;;;;;8.87;8.17;;;;;;;-0.13;56.75;99212.09;4152889;28;20496;-45
2022/03/07 00:06:51;;;;;;;8.67;7.97;;;;;;;-0.10;56.59;99210.94;4144647;28;20217;-45
2022/03/07 00:08:53;;;;;;;9.70;8.10;;;;;;;-0.15;56.68;99225.91;4144018;28;20360;-45
2022/03/07 00:10:55;;;;;;;11.43;10.47;;;;;;;-0.13;56.90;99218.50;4124511;28;20214;-45
2022/03/07 00:12:56;;;;;;;8.90;8.20;;;;;;;-0.19;56.77;99213.78;4136464;28;20209;-46
2022/03/07 00:14:58;;;;;;;9.93;9.23;;;;;;;-0.20;56.67;99218.31;4137944;28;20214;-47
2022/03/07 00:17:00;;;;;;;8.67;8.00;;;;;;;-0.11;56.73;99217.31;4151385;28;20700;-46
2022/03/07 00:19:02;;;;;;;9.57;8.87;;;;;;;-0.15;57.07;99217.84;4120634;28;20238;-46
2022/03/07 00:21:05;;;;;;;9.90;9.20;;;;;;;-0.31;57.21;99215.09;4140040;28;20213;-45
2022/03/07 00:23:11;;;;;;;9.20;8.50;;;;;;;-0.26;57.23;99218.13;4143753;28;20314;-46
2022/03/07 00:25:13;;;;;;;9.00;8.30;;;;;;;-0.24;57.12;99216.13;4144495;28;20703;-45
2022/03/07 00:27:14;;;;;;;8.20;7.50;;;;;;;-0.19;57.00;99220.00;4142697;28;20209;-46
2022/03/07 00:29:17;;;;;;;8.60;8.00;;;;;;;-0.32;57.39;99213.41;4135115;28;20249;-46
2022/03/07 00:31:22;;;;;;;9.03;8.37;;;;;;;-0.24;57.18;99225.03;4135097;28;20209;-46
2022/03/07 00:33:24;;;;;;;9.47;8.77;;;;;;;-0.35;57.28;99211.06;4140251;28;20277;-45
2022/03/07 00:35:26;;;;;;;8.23;7.67;;;;;;;-0.36;57.64;99222.84;4138593;28;20241;-45
2022/03/07 00:37:28;;;;;;;8.93;8.23;;;;;;;-0.42;57.69;99218.94;4139443;28;20248;-45
2022/03/07 00:39:30;;;;;;;9.87;9.07;;;;;;;-0.46;57.74;99227.50;4172375;28;20584;-46
2022/03/07 00:41:32;;;;;;;9.50;8.50;;;;;;;-0.44;57.89;99225.47;4156194;28;20220;-46
2022/03/07 00:43:33;;;;;;;8.20;7.50;;;;;;;-0.35;57.74;99227.19;4156100;28;20247;-45
2022/03/07 00:45:35;;;;;;;9.97;8.80;;;;;;;-0.50;58.22;99226.13;4120679;28;20203;-45
2022/03/07 00:47:37;;;;;;;7.97;7.37;;;;;;;-0.59;58.30;99224.44;4144314;28;20263;-46
2022/03/07 00:49:39;;;;;;;8.50;7.80;;;;;;;-0.61;58.15;99219.22;4144156;28;20356;-45
2022/03/07 00:51:40;;;;;;;8.13;7.47;;;;;;;-0.58;58.46;99226.97;4141346;28;20735;-45
2022/03/07 00:53:46;;;;;;;9.00;8.30;;;;;;;-0.62;58.45;99227.44;4143026;28;20213;-45
2022/03/07 00:55:48;;;;;;;9.97;9.17;;;;;;;-0.58;58.64;99226.09;4170080;28;20200;-46
2022/03/07 00:57:49;;;;;;;10.00;9.10;;;;;;;-0.55;58.50;99226.63;4145048;28;20264;-46
2022/03/07 00:59:55;;;;;;;8.73;8.13;;;;;;;-0.62;58.46;99230.97;4142317;28;20201;-46
2022/03/07 01:01:56;;;;;;;9.87;9.03;;;;;;;-0.60;58.40;99230.81;4138828;28;20256;-46
2022/03/07 01:03:58;;;;;;;8.47;7.77;;;;;;;-0.54;58.39;99232.84;4155786;28;20229;-46
2022/03/07 01:06:00;;;;;;;8.53;7.90;;;;;;;-0.58;58.25;99229.66;4157076;28;20208;-47
2022/03/07 01:08:02;;;;;;;8.47;7.67;;;;;;;-0.52;58.47;99233.53;4140453;28;20275;-46
2022/03/07 01:10:04;;;;;;;9.97;9.03;;;;;;;-0.70;58.87;99230.09;4134428;28;20212;-46
2022/03/07 01:12:07;;;;;;;8.40;7.87;;;;;;;-0.73;58.70;99225.06;4136815;28;20217;-46
2022/03/07 01:14:08;;;;;;;9.27;8.57;;;;;;;-0.65;58.61;99227.75;4123506;28;20240;-46
2022/03/07 01:16:10;;;;;;;9.07;8.27;;;;;;;-0.66;58.88;99231.44;4155708;28;20212;-46
2022/03/07 01:18:12;;;;;;;9.13;8.53;;;;;;;-0.80;59.13;99224.00;4154047;28;20592;-46
2022/03/07 01:20:14;;;;;;;8.07;7.50;;;;;;;-0.77;58.96;99229.03;4146541;28;20205;-46
2022/03/07 01:22:15;;;;;;;8.97;8.27;;;;;;;-0.83;59.19;99224.31;4135460;28;20280;-46
2022/03/07 01:24:18;;;;;;;9.17;8.37;;;;;;;-0.83;59.49;99218.94;4136601;28;20216;-46
2022/03/07 01:26:19;;;;;;;9.50;8.07;;;;;;;-0.81;59.36;99225.03;4153533;28;20196;-46
2022/03/07 01:28:21;;;;;;;8.43;7.40;;;;;;;-0.85;59.47;99223.66;4136878;28;20253;-46
2022/03/07 01:30:23;;;;;;;9.83;8.97;;;;;;;-0.85;59.56;99223.66;4144328;28;20213;-46
2022/03/07 01:32:25;;;;;;;8.87;8.17;;;;;;;-0.78;59.11;99222.00;4137865;28;20661;-46
2022/03/07 01:34:27;;;;;;;8.23;7.60;;;;;;;-0.78;59.45;99219.31;4151339;28;20276;-46
2022/03/07 01:36:28;;;;;;;8.70;8.20;;;;;;;-0.76;59.34;99215.47;4142901;28;20205;-46
2022/03/07 01:38:30;;;;;;;8.00;7.50;;;;;;;-0.84;59.29;99217.28;4152109;28;20276;-45
2022/03/07 01:40:32;;;;;;;9.13;8.40;;;;;;;-0.86;59.57;99214.78;4138256;28;20284;-46
2022/03/07 01:42:34;;;;;;;8.43;7.73;;;;;;;-0.83;59.36;99214.44;4143077;28;20279;-46
2022/03/07 01:44:36;;;;;;;8.53;7.77;;;;;;;-0.83;59.50;99216.25;4134948;28;20305;-46
2022/03/07 01:46:38;;;;;;;7.83;7.13;;;;;;;-0.75;59.42;99210.94;4139458;28;20202;-46
2022/03/07 01:48:40;;;;;;;8.93;8.33;;;;;;;-0.68;59.07;99206.59;4128647;28;20237;-45
2022/03/07 01:50:42;;;;;;;8.57;7.77;;;;;;;-0.78;59.43;99203.19;4152200;28;20212;-46
2022/03/07 01:52:47;;;;;;;8.83;8.23;;;;;;;-0.75;59.58;99200.19;4141710;28;20285;-46
2022/03/07 01:54:49;;;;;;;8.20;7.60;;;;;;;-0.72;59.53;99199.88;4141587;28;20734;-46
2022/03/07 01:56:53;;;;;;;8.53;7.77;;;;;;;-0.63;59.14;99201.56;4139456;28;20210;-45
2022/03/07 01:58:54;;;;;;;8.53;7.77;;;;;;;-0.69;59.27;99196.88;4137119;28;20276;-46
2022/03/07 02:00:56;;;;;;;7.97;7.37;;;;;;;-0.57;59.07;99203.59;4142830;28;20287;-46
2022/03/07 02:02:58;;;;;;;9.53;8.83;;;;;;;-0.59;59.14;99194.88;4137591;28;20245;-46
2022/03/07 02:05:00;;;;;;;8.33;7.73;;;;;;;-0.59;58.96;99197.56;4142393;28;20210;-46
2022/03/07 02:07:02;;;;;;;8.37;7.87;;;;;;;-0.60;59.06;99188.63;4126487;28;20218;-45
2022/03/07 02:09:08;;;;;;;20.77;8.93;;;;;;;-0.55;58.46;99198.94;4152175;28;20259;-46
2022/03/07 02:11:10;;;;;;;7.80;7.20;;;;;;;-0.57;58.71;99188.34;4153310;28;20310;-46
2022/03/07 02:13:16;;;;;;;7.30;6.73;;;;;;;-0.66;58.66;99191.16;4140517;28;20213;-46
2022/03/07 02:15:18;;;;;;;9.37;8.77;;;;;;;-0.62;58.93;99189.84;4137786;28;20209;-45
2022/03/07 02:17:20;;;;;;;7.93;7.33;;;;;;;-0.68;58.62;99190.50;4139673;28;20202;-45
2022/03/07 02:19:22;;;;;;;8.50;7.80;;;;;;;-0.66;58.53;99188.47;4170656;28;20274;-45
2022/03/07 02:21:23;;;;;;;7.87;7.17;;;;;;;-0.57;58.04;99177.59;4172367;28;20207;-45
2022/03/07 02:23:25;;;;;;;8.13;7.53;;;;;;;-0.57;57.84;99182.09;4142290;28;20257;-46
2022/03/07 02:25:27;;;;;;;7.70;7.00;;;;;;;-0.67;57.78;99184.09;4141764;28;20205;-45
2022/03/07 02:27:29;;;;;;;7.10;6.60;;;;;;;-0.61;56.92;99186.13;4141799;28;20198;-46
2022/03/07 02:29:31;;;;;;;6.63;6.13;;;;;;;-0.64;57.63;99181.06;4154398;28;20286;-46
2022/03/07 02:31:34;;;;;;;6.90;6.40;;;;;;;-0.61;57.00;99180.75;4160549;28;20295;-47
2022/03/07 02:33:37;;;;;;;14.20;6.20;;;;;;;-0.58;56.09;99178.59;4147429;28;20600;-45
2022/03/07 02:35:41;;;;;;;7.10;6.60;;;;;;;-0.54;56.16;99187.16;4154767;28;20209;-45
2022/03/07 02:37:43;;;;;;;6.60;6.20;;;;;;;-0.61;55.75;99191.50;4141523;28;20209;-45
2022/03/07 02:39:45;;;;;;;7.83;7.23;;;;;;;-0.60;55.81;99177.91;4141021;28;20617;-45
2022/03/07 02:42:07;;;;;;;6.87;6.47;;;;;;;-0.62;55.75;99184.47;4140326;28;20209;-45
2022/03/07 02:44:09;;;;;;;5.60;5.10;;;;;;;-0.69;55.58;99194.19;4170010;28;20224;-45
2022/03/07 02:46:11;;;;;;;6.27;5.87;;;;;;;-0.64;55.81;99186.44;4139162;28;20223;-46
2022/03/07 02:48:13;;;;;;;6.23;5.77;;;;;;;-0.52;55.86;99190.53;4145515;28;20229;-45
2022/03/07 02:50:18;;;;;;;6.47;5.97;;;;;;;-0.59;55.81;99184.97;4137670;28;20205;-46
2022/03/07 02:52:19;;;;;;;12.27;7.10;;;;;;;-0.65;56.28;99198.22;4140437;28;20199;-45
2022/03/07 02:54:21;;;;;;;5.93;5.53;;;;;;;-0.72;55.95;99189.97;4151727;28;20213;-45
2022/03/07 02:56:23;;;;;;;6.83;6.37;;;;;;;-0.70;56.17;99189.78;4138792;28;20241;-46
2022/03/07 02:58:24;;;;;;;7.17;6.67;;;;;;;-0.73;56.37;99187.44;4133202;28;20226;-45
2022/03/07 03:00:26;;;;;;;6.53;5.93;;;;;;;-0.72;56.62;99189.13;4139997;28;20691;-46
2022/03/07 03:02:28;;;;;;;5.67;5.27;;;;;;;-0.70;56.49;99192.47;4123731;28;20678;-46
2022/03/07 03:04:30;;;;;;;7.53;6.90;;;;;;;-0.63;56.49;99193.50;4145058;28;20209;-45
2022/03/07 03:06:31;;;;;;;6.30;5.80;;;;;;;-0.67;56.01;99192.16;4141403;28;20220;-46
2022/03/07 03:08:33;;;;;;;6.80;6.20;;;;;;;-0.69;55.73;99188.81;4138484;28;20718;-46
2022/03/07 03:10:36;;;;;;;5.53;5.13;;;;;;;-0.74;55.92;99191.13;4141325;28;20233;-46
2022/03/07 03:12:38;;;;;;;6.53;6.13;;;;;;;-0.78;55.78;99189.75;4146100;28;20442;-46
2022/03/07 03:14:40;;;;;;;4.83;4.53;;;;;;;-0.78;55.59;99189.75;4129817;28;20206;-46
2022/03/07 03:16:41;;;;;;;5.57;5.27;;;;;;;-0.84;55.74;99191.25;4145329;28;20692;-46
2022/03/07 03:18:43;;;;;;;6.20;5.80;;;;;;;-0.91;55.66;99179.50;4162376;28;20264;-45
2022/03/07 03:20:46;;;;;;;4.63;4.33;;;;;;;-0.94;55.79;99190.53;4145223;28;20260;-45
2022/03/07 03:22:48;;;;;;;5.70;5.10;;;;;;;-0.93;55.68;99183.34;4171211;28;20223;-46
2022/03/07 03:24:50;;;;;;;5.30;5.00;;;;;;;-0.85;55.88;99188.72;4136744;28;20206;-45
2022/03/07 03:26:52;;;;;;;5.30;4.90;;;;;;;-1.01;55.89;99186.00;4151964;28;20217;-45
2022/03/07 03:28:53;;;;;;;4.93;4.63;;;;;;;-0.99;55.90;99192.03;4141816;28;20658;-45
2022/03/07 03:30:55;;;;;;;5.20;4.83;;;;;;;-1.01;55.47;99189.50;4140229;28;20687;-46
2022/03/07 03:32:57;;;;;;;5.47;5.17;;;;;;;-1.02;55.81;99187.00;4140310;28;20209;-45
2022/03/07 03:34:59;;;;;;;5.20;4.83;;;;;;;-0.92;55.84;99187.69;4141508;28;20212;-45
2022/03/07 03:37:01;;;;;;;6.23;4.97;;;;;;;-0.96;55.69;99191.69;4146089;28;20217;-47
2022/03/07 03:39:03;;;;;;;5.23;4.90;;;;;;;-1.09;56.25;99192.16;4143839;28;20229;-46
2022/03/07 03:41:04;;;;;;;6.00;5.60;;;;;;;-1.03;55.89;99179.91;4144359;28;20575;-46
2022/03/07 03:43:06;;;;;;;4.77;4.57;;;;;;;-1.00;55.94;99190.34;4146094;28;20299;-46
2022/03/07 03:45:08;;;;;;;5.87;5.57;;;;;;;-1.02;55.92;99197.75;4139160;28;20201;-46
2022/03/07 03:47:10;;;;;;;5.17;4.77;;;;;;;-1.02;55.78;99187.00;4135025;28;20206;-46
2022/03/07 03:49:12;;;;;;;5.67;5.27;;;;;;;-1.09;55.94;99189.47;4140202;28;20265;-45
2022/03/07 03:51:13;;;;;;;4.77;4.47;;;;;;;-1.08;55.84;99201.06;4170695;28;20235;-45
2022/03/07 03:53:15;;;;;;;5.10;4.80;;;;;;;-1.13;56.18;99185.44;4172156;28;21171;-45
2022/03/07 03:55:17;;;;;;;5.27;4.87;;;;;;;-0.96;55.76;99191.69;4142476;28;20206;-45
2022/03/07 03:57:19;;;;;;;5.50;5.10;;;;;;;-1.04;55.98;99199.72;4143166;28;20665;-46
2022/03/07 03:59:20;;;;;;;5.67;5.27;;;;;;;-1.04;56.12;99199.72;4144337;28;20252;-46
2022/03/07 04:01:22;;;;;;;6.10;5.70;;;;;;;-1.10;56.09;99200.34;4138540;28;20285;-45
2022/03/07 04:03:25;;;;;;;5.80;5.30;;;;;;;-1.08;56.10;99203.75;4144635;28;20705;-46
2022/03/07 04:05:27;;;;;;;6.40;5.97;;;;;;;-1.06;56.03;99196.38;4146640;28;20211;-45
2022/03/07 04:07:29;;;;;;;6.07;5.67;;;;;;;-1.09;56.58;99191.31;4138375;28;20209;-45
2022/03/07 04:09:34;;;;;;;7.00;6.30;;;;;;;-0.99;56.14;99200.09;4139160;28;20759;-45
2022/03/07 04:11:35;;;;;;;6.27;5.73;;;;;;;-0.94;55.76;99205.81;4169779;28;20227;-45
2022/03/07 04:13:37;;;;;;;5.90;5.50;;;;;;;-0.94;55.65;99203.97;4146103;28;20255;-45
2022/03/07 04:15:39;;;;;;;4.73;4.43;;;;;;;-1.06;56.03;99201.72;4143121;28;20849;-45
2022/03/07 04:17:42;;;;;;;6.53;6.00;;;;;;;-1.05;56.22;99200.72;4137724;28;20205;-45
2022/03/07 04:19:44;;;;;;;6.47;5.93;;;;;;;-1.09;56.05;99202.06;4140422;28;20655;-45
2022/03/07 04:21:45;;;;;;;6.23;5.73;;;;;;;-1.11;56.14;99204.06;4143754;28;20212;-45
2022/03/07 04:23:47;;;;;;;5.07;4.77;;;;;;;-1.06;56.31;99207.97;4142308;28;20252;-45
2022/03/07 04:25:49;;;;;;;6.30;5.80;;;;;;;-1.08;56.06;99209.13;4151704;28;20713;-45
2022/03/07 04:27:50;;;;;;;5.77;5.37;;;;;;;-1.14;56.00;99204.38;4120285;28;20681;-45
2022/03/07 04:29:53;;;;;;;6.40;5.90;;;;;;;-1.13;56.28;99206.06;4140388;28;20205;-46
2022/03/07 04:31:55;;;;;;;6.80;6.30;;;;;;;-1.20;56.13;99213.06;4152107;28;20209;-45
2022/03/07 04:33:57;;;;;;;6.27;5.77;;;;;;;-1.26;56.91;99211.03;4139292;28;20197;-46
2022/03/07 04:35:58;;;;;;;6.13;5.63;;;;;;;-1.12;56.38;99227.38;4138076;28;20210;-46
2022/03/07 04:38:01;;;;;;;7.13;6.70;;;;;;;-1.16;56.24;99226.00;4142524;28;20233;-45
2022/03/07 04:40:03;;;;;;;5.17;4.87;;;;;;;-1.15;56.52;99229.56;4136166;28;20212;-46
2022/03/07 04:42:05;;;;;;;5.87;5.47;;;;;;;-1.18;56.64;99229.84;4141987;28;20268;-46
2022/03/07 04:44:07;;;;;;;6.77;6.23;;;;;;;-1.13;56.27;99224.84;4152277;28;20221;-46
2022/03/07 04:46:09;;;;;;;5.10;4.70;;;;;;;-1.14;56.66;99232.06;4126541;28;20213;-46
2022/03/07 04:48:11;;;;;;;6.50;6.00;;;;;;;-1.13;56.42;99233.75;4144247;28;20264;-46
2022/03/07 04:50:13;;;;;;;5.90;5.40;;;;;;;-1.18;56.42;99230.72;4138165;28;20213;-46
2022/03/07 04:52:14;;;;;;;6.40;5.87;;;;;;;-1.03;56.26;99233.63;4153948;28;20649;-46
2022/03/07 04:54:16;;;;;;;6.10;5.60;;;;;;;-1.06;56.30;99232.13;4138006;28;20209;-46
2022/03/07 04:56:18;;;;;;;6.27;5.77;;;;;;;-1.16;56.27;99228.69;4154149;28;20209;-47
2022/03/07 04:58:21;;;;;;;6.17;5.67;;;;;;;-1.24;56.50;99231.34;4145802;28;20707;-48
2022/03/07 05:00:23;;;;;;;6.27;5.87;;;;;;;-1.17;56.81;99236.91;4153262;28;20244;-46
2022/03/07 05:02:24;;;;;;;7.37;6.87;;;;;;;-1.10;56.47;99237.94;4135411;28;20264;-46
2022/03/07 05:04:26;;;;;;;6.90;6.30;;;;;;;-1.04;56.33;99240.00;4127724;28;20764;-46
2022/03/07 05:06:31;;;;;;;5.87;5.43;;;;;;;-1.12;56.24;99234.59;4146372;28;20212;-45
2022/03/07 05:08:32;;;;;;;6.50;6.10;;;;;;;-1.16;56.26;99233.22;4138330;28;20678;-46
2022/03/07 05:10:34;;;;;;;6.43;6.03;;;;;;;-1.18;56.45;99245.97;4139315;28;20233;-46
2022/03/07 05:12:36;;;;;;;6.10;5.70;;;;;;;-1.12;56.37;99243.50;4152222;28;20224;-46
2022/03/07 05:14:38;;;;;;;7.00;5.93;;;;;;;-1.11;56.49;99239.81;4139115;28;20207;-45
2022/03/07 05:16:39;;;;;;;7.00;6.57;;;;;;;-1.21;56.72;99244.44;4122594;28;20280;-48
2022/03/07 05:18:41;;;;;;;6.70;6.20;;;;;;;-1.20;56.64;99245.28;4137482;28;20228;-45
2022/03/07 05:20:43;;;;;;;6.03;5.53;;;;;;;-1.17;56.21;99236.91;4139215;28;20772;-46
2022/03/07 05:22:57;;;;;;;6.47;6.07;;;;;;;-1.27;56.62;99242.38;4129851;28;20214;-47
2022/03/07 05:24:59;;;;;;;5.73;5.33;;;;;;;-1.23;56.50;99242.91;4146584;28;20555;-45
2022/03/07 05:27:00;;;;;;;7.30;6.70;;;;;;;-1.25;56.45;99239.53;4126637;28;20209;-46
2022/03/07 05:29:03;;;;;;;6.80;6.30;;;;;;;-1.22;56.41;99255.34;4149073;28;20229;-46
2022/03/07 05:31:05;;;;;;;6.33;5.93;;;;;;;-1.22;56.51;99249.97;4147825;28;20210;-46
2022/03/07 05:33:07;;;;;;;6.23;5.83;;;;;;;-1.30;56.66;99252.59;4150385;28;20216;-46
2022/03/07 05:35:09;;;;;;;6.83;6.33;;;;;;;-1.27;56.74;99242.38;4148960;28;20263;-48
2022/03/07 05:37:11;;;;;;;6.90;6.33;;;;;;;-1.30;56.38;99242.72;4143854;28;20206;-46
2022/03/07 05:39:12;;;;;;;7.17;6.67;;;;;;;-1.19;56.36;99242.44;4160387;28;20439;-46
2022/03/07 05:41:14;;;;;;;6.07;5.60;;;;;;;-1.14;56.38;99241.97;4146000;28;20236;-45
2022/03/07 05:43:16;;;;;;;6.67;6.27;;;;;;;-1.19;56.12;99244.28;4147715;28;20858;-47
2022/03/07 05:45:18;;;;;;;5.97;5.40;;;;;;;-1.20;56.25;99245.28;4143783;28;20214;-46
2022/03/07 05:47:19;;;;;;;6.70;6.20;;;;;;;-1.17;55.40;99248.50;4146660;28;20669;-45
2022/03/07 05:49:21;;;;;;;6.77;6.17;;;;;;;-1.14;56.13;99247.34;4147962;28;20236;-46
2022/03/07 05:51:24;;;;;;;8.10;7.57;;;;;;;-1.25;55.94;99250.28;4147016;28;20296;-45
2022/03/07 05:53:26;;;;;;;6.93;6.33;;;;;;;-1.22;55.88;99252.66;4143513;28;20297;-46
2022/03/07 05:55:27;;;;;;;7.27;6.67;;;;;;;-1.26;56.14;99248.59;4141867;28;20302;-46
2022/03/07 05:57:29;;;;;;;8.03;7.23;;;;;;;-1.18;56.11;99245.97;4140246;28;20210;-46
2022/03/07 05:59:31;;;;;;;6.97;6.47;;;;;;;-1.12;55.71;99256.06;4143614;28;20240;-46
2022/03/07 06:01:33;;;;;;;6.37;5.93;;;;;;;-1.12;56.18;99256.06;4142507;28;20695;-46
2022/03/07 06:03:35;;;;;;;7.47;6.87;;;;;;;-1.16;55.60;99260.06;4141355;28;20217;-46
2022/03/07 06:05:37;;;;;;;6.80;6.30;;;;;;;-1.20;55.31;99269.44;4145502;28;20263;-46
2022/03/07 06:07:39;;;;;;;7.83;7.23;;;;;;;-1.23;55.71;99259.00;4146529;28;20221;-45
2022/03/07 06:09:41;;;;;;;7.87;7.27;;;;;;;-1.22;55.79;99258.03;4145807;28;20209;-46
2022/03/07 06:11:43;;;;;;;7.83;7.23;;;;;;;-1.23;55.46;99269.75;4146160;28;20217;-46
2022/03/07 06:13:44;;;;;;;6.47;6.00;;;;;;;-1.14;55.59;99258.06;4141068;28;20275;-47
2022/03/07 06:15:47;;;;;;;7.23;6.73;;;;;;;-1.23;55.53;99265.22;4146894;28;21134;-47
2022/03/07 06:17:51;;;;;;;7.93;7.33;;;;;;;-1.24;55.21;99263.56;4155488;28;20251;-47
2022/03/07 06:19:52;;;;;;;7.23;6.63;;;;;;;-1.26;55.44;99268.25;4143473;28;20208;-46
2022/03/07 06:21:54;;;;;;;8.60;7.80;;;;;;;-1.30;55.60;99274.91;4157948;28;20201;-46
2022/03/07 06:23:56;;;;;;;8.47;7.87;;;;;;;-1.22;55.28;99271.47;4145964;28;20280;-46
2022/03/07 06:25:58;;;;;;;7.53;6.60;;;;;;;-1.20;55.71;99274.81;4155156;28;20204;-47
2022/03/07 06:28:04;;;;;;;8.70;8.07;;;;;;;-1.22;55.38;99271.47;4155148;28;20647;-46
2022/03/07 06:30:06;;;;;;;7.97;7.37;;;;;;;-1.32;55.60;99276.06;4135423;28;20654;-46
2022/03/07 06:32:08;;;;;;;7.30;6.70;;;;;;;-1.37;55.42;99278.38;4138872;28;20221;-46
2022/03/07 06:34:10;;;;;;;9.27;8.40;;;;;;;-1.38;55.28;99280.22;4156258;28;20232;-46
2022/03/07 06:36:12;;;;;;;9.37;8.67;;;;;;;-1.25;55.80;99279.81;4159632;28;20605;-47
2022/03/07 06:38:14;;;;;;;9.13;8.43;;;;;;;-1.30;55.87;99274.06;4146659;28;20248;-46
2022/03/07 06:40:20;;;;;;;10.20;7.57;;;;;;;-1.43;55.56;99281.69;4145167;28;20205;-46
2022/03/07 06:42:22;;;;;;;8.17;7.57;;;;;;;-1.33;55.21;99279.75;4142132;28;20699;-46
2022/03/07 06:44:24;;;;;;;8.50;7.80;;;;;;;-1.39;55.08;99283.06;4139404;28;20686;-47
2022/03/07 06:46:28;;;;;;;8.53;7.83;;;;;;;-1.43;55.35;99287.91;4140987;28;20209;-46
2022/03/07 06:48:30;;;;;;;9.03;8.33;;;;;;;-1.47;55.26;99288.38;4136545;28;20718;-46
2022/03/07 06:50:32;;;;;;;8.83;8.07;;;;;;;-1.45;55.86;99281.00;4158834;28;20676;-47
2022/03/07 06:52:34;;;;;;;11.27;8.17;;;;;;;-1.48;54.98;99292.06;4145955;28;20209;-46
2022/03/07 06:54:36;;;;;;;10.23;9.30;;;;;;;-1.47;55.24;99289.19;4144363;28;20206;-46
2022/03/07 06:56:38;;;;;;;10.53;9.73;;;;;;;-1.40;55.20;99289.44;4140844;28;20670;-46
2022/03/07 06:58:41;;;;;;;11.23;9.70;;;;;;;-1.33;54.99;99295.84;4141484;28;20288;-46
2022/03/07 07:00:48;;;;;;;10.03;9.23;;;;;;;-1.44;55.47;99293.41;4141380;28;20212;-46
2022/03/07 07:02:50;;;;;;;7.90;7.37;;;;;;;-1.45;55.15;99303.31;4169787;28;20242;-46
2022/03/07 07:04:52;;;;;;;10.10;9.30;;;;;;;-1.44;54.94;99305.00;4145134;28;20228;-46
2022/03/07 07:06:54;;;;;;;11.63;10.47;;;;;;;-1.39;54.76;99291.97;4143032;28;20208;-46
2022/03/07 07:08:55;;;;;;;9.37;8.57;;;;;;;-1.33;55.07;99301.22;4144335;28;20323;-46
2022/03/07 07:10:57;;;;;;;11.10;10.20;;;;;;;-1.38;54.86;99309.75;4143861;28;20947;-46
2022/03/07 07:12:59;;;;;;;11.07;10.27;;;;;;;-1.28;54.53;99312.34;4146855;28;20684;-45
2022/03/07 07:15:02;;;;;;;11.37;10.47;;;;;;;-1.29;54.71;99313.34;4143498;28;20201;-46
2022/03/07 07:17:04;;;;;;;11.53;10.63;;;;;;;-1.19;54.30;99314.94;4156471;28;20692;-46
2022/03/07 07:19:06;;;;;;;11.33;10.53;;;;;;;-1.23;53.81;99312.69;4140991;28;20225;-45
2022/03/07 07:21:07;;;;;;;10.37;9.57;;;;;;;-1.00;53.86;99317.38;4141489;28;20231;-45
2022/03/07 07:23:09;;;;;;;11.23;10.30;;;;;;;-1.11;53.95;99311.44;4173864;28;20208;-45
2022/03/07 07:25:11;;;;;;;9.27;8.57;;;;;;;-1.00;53.58;99309.31;4153219;28;20249;-45
2022/03/07 07:27:13;;;;;;;11.43;10.50;;;;;;;-0.96;53.32;99313.41;4140989;28;20209;-45
2022/03/07 07:29:15;;;;;;;11.23;10.33;;;;;;;-0.80;53.69;99307.28;4163454;28;20220;-47
2022/03/07 07:31:17;;;;;;;11.13;10.23;;;;;;;-0.53;52.27;99307.94;4137464;28;20212;-47
2022/03/07 07:33:18;;;;;;;11.13;10.00;;;;;;;-0.18;51.77;99314.94;4147842;28;20218;-44
2022/03/07 07:35:20;;;;;;;11.30;10.40;;;;;;;0.06;51.58;99311.31;4146132;28;20198;-45
2022/03/07 07:37:22;;;;;;;9.67;8.77;;;;;;;0.08;50.29;99308.47;4154456;28;20209;-44
2022/03/07 07:39:24;;;;;;;8.90;8.10;;;;;;;0.55;50.00;99318.44;4161674;28;20224;-45
2022/03/07 07:41:26;;;;;;;10.03;9.03;;;;;;;0.79;49.54;99321.16;4127215;28;20214;-46
2022/03/07 07:43:27;;;;;;;8.43;7.60;;;;;;;0.55;48.92;99314.94;4156223;28;20209;-45
2022/03/07 07:45:29;;;;;;;9.30;8.60;;;;;;;0.54;49.29;99322.16;4140009;28;20235;-45
2022/03/07 07:47:31;;;;;;;9.70;8.80;;;;;;;0.37;48.70;99325.84;4136917;28;20209;-46
2022/03/07 07:49:33;;;;;;;8.90;8.20;;;;;;;0.45;48.60;99327.69;4122999;28;20222;-45
2022/03/07 07:51:35;;;;;;;9.87;9.07;;;;;;;0.80;48.50;99336.31;4122615;28;20324;-45
2022/03/07 07:53:37;;;;;;;9.00;8.20;;;;;;;1.16;47.23;99324.16;4141984;28;20708;-45
2022/03/07 07:55:39;;;;;;;8.87;8.20;;;;;;;1.24;47.33;99337.63;4141132;28;20206;-46
2022/03/07 07:57:41;;;;;;;8.00;7.30;;;;;;;1.47;46.29;99327.78;4159810;28;20209;-47
2022/03/07 07:59:44;;;;;;;7.90;7.30;;;;;;;1.74;45.88;99330.03;4171875;28;20214;-45
2022/03/07 08:02:06;;;;;;;7.53;6.93;;;;;;;1.51;46.09;99323.72;4141295;28;20271;-46
2022/03/07 08:04:09;;;;;;;8.37;7.63;;;;;;;1.94;45.91;99325.91;4139347;28;22064;-46
2022/03/07 08:06:36;;;;;;;7.90;7.30;;;;;;;1.82;45.10;99324.59;4143925;28;20209;-48
2022/03/07 08:08:58;;;;;;;8.33;7.67;;;;;;;1.37;45.43;99332.53;4141902;28;20228;-47
2022/03/07 08:11:00;;;;;;;8.20;7.50;;;;;;;1.45;45.83;99327.13;4124233;28;20260;-49
2022/03/07 08:13:02;;;;;;;10.07;7.57;;;;;;;1.90;44.87;99319.19;4139264;28;20204;-48
2022/03/07 08:15:11;;;;;;;9.20;8.27;;;;;;;1.85;45.21;99329.66;4155023;28;20275;-49
2022/03/07 08:17:16;;;;;;;9.77;6.07;;;;;;;2.02;44.58;99328.56;4136009;28;20240;-47
2022/03/07 08:19:18;;;;;;;8.07;7.40;;;;;;;1.86;43.81;99312.47;4137015;28;20225;-47
2022/03/07 08:21:25;;;;;;;7.90;7.30;;;;;;;1.96;43.82;99332.00;4138327;28;20717;-48
2022/03/07 08:23:27;;;;;;;7.27;6.77;;;;;;;1.93;43.65;99324.22;4142679;28;20259;-47
2022/03/07 08:25:30;;;;;;;10.00;6.43;;;;;;;2.40;43.29;99327.66;4139343;28;20234;-48
2022/03/07 08:27:34;;;;;;;6.53;5.93;;;;;;;2.63;43.26;99328.53;4141833;28;20216;-47
2022/03/07 08:29:36;;;;;;;6.47;5.97;;;;;;;2.53;43.66;99324.41;4139426;28;20296;-47
2022/03/07 08:31:37;;;;;;;6.17;5.57;;;;;;;2.05;42.92;99319.28;4170717;28;20282;-47
2022/03/07 08:33:42;;;;;;;8.93;6.90;;;;;;;2.35;43.63;99319.25;4142668;28;20237;-49
2022/03/07 08:35:44;;;;;;;6.90;6.40;;;;;;;1.97;43.59;99330.13;4141964;28;20209;-48
2022/03/07 08:37:48;;;;;;;7.27;6.70;;;;;;;2.66;43.38;99327.34;4144942;28;20688;-48
2022/03/07 08:39:50;;;;;;;7.50;6.97;;;;;;;2.99;42.06;99329.59;4130758;28;20596;-48
2022/03/07 08:41:52;;;;;;;12.43;6.13;;;;;;;3.32;42.12;99340.91;4138100;28;21610;-49
2022/03/07 08:43:55;;;;;;;7.60;7.00;;;;;;;3.67;41.54;99335.66;4142505;28;20212;-50
2022/03/07 08:45:58;;;;;;;8.13;7.38;;;;;;;4.51;40.64;99338.63;4143077;28;20229;-47
2022/03/07 08:48:00;;;;;;;7.57;7.00;;;;;;;3.38;41.06;99346.44;4136606;28;20234;-47
2022/03/07 08:50:04;;;;;;;7.10;6.53;;;;;;;3.17;41.37;99337.34;4134404;28;21229;-47
2022/03/07 08:52:06;;;;;;;6.15;5.65;;;;;;;2.56;41.46;99330.28;4133965;28;20209;-46
2022/03/07 08:54:10;;;;;;;6.70;6.10;;;;;;;2.42;42.13;99347.22;4144825;28;20256;-50
2022/03/07 08:56:12;;;;;;;8.70;7.17;;;;;;;2.24;42.92;99338.59;4125251;28;20329;-48
2022/03/07 08:58:28;;;;;;;7.53;6.83;;;;;;;1.92;42.39;99343.28;4139719;28;20217;-48
2022/03/07 09:00:30;;;;;;;7.43;6.83;;;;;;;2.52;42.08;99339.75;4136147;28;20680;-47
2022/03/07 09:02:32;;;;;;;6.87;6.37;;;;;;;2.74;42.53;99330.78;4157751;28;20700;-48
2022/03/07 09:04:34;;;;;;;6.93;6.43;;;;;;;2.49;42.12;99344.66;4149506;28;20232;-49
2022/03/07 09:06:36;;;;;;;21.27;6.27;;;;;;;2.81;41.86;99336.34;4144464;28;20217;-46
2022/03/07 09:08:38;;;;;;;8.03;7.43;;;;;;;2.95;41.97;99338.25;4154486;28;20232;-47
2022/03/07 09:10:42;;;;;;;7.53;6.87;;;;;;;3.32;41.58;99335.50;4126910;28;20218;-48
2022/03/07 09:12:45;;;;;;;8.35;7.65;;;;;;;2.81;41.65;99337.16;4162180;28;20300;-51
2022/03/07 09:14:47;;;;;;;7.63;7.13;;;;;;;2.70;42.15;99337.59;4169895;28;20594;-48
2022/03/07 09:16:48;;;;;;;7.80;7.20;;;;;;;2.54;42.06;99345.81;4142827;28;20293;-48
2022/03/07 09:18:51;;;;;;;7.87;7.27;;;;;;;2.43;41.54;99348.94;4127192;28;20237;-48
2022/03/07 09:20:54;;;;;;;7.43;6.93;;;;;;;3.75;41.81;99354.50;4154872;28;20204;-49
2022/03/07 09:22:56;;;;;;;8.35;7.60;;;;;;;3.23;41.12;99353.72;4154154;28;20268;-49
2022/03/07 09:24:58;;;;;;;10.00;7.68;;;;;;;3.79;40.92;99355.81;4138087;28;20268;-49
2022/03/07 09:27:00;;;;;;;7.50;6.97;;;;;;;3.79;40.45;99361.22;4141937;28;20197;-50
2022/03/07 09:29:03;;;;;;;7.38;6.75;;;;;;;4.01;40.89;99365.69;4168146;28;21098;-49
2022/03/07 09:31:06;;;;;;;7.95;7.35;;;;;;;4.19;40.40;99363.44;4136608;28;20264;-49
2022/03/07 09:33:07;;;;;;;7.63;7.10;;;;;;;4.00;40.19;99361.31;4137180;28;20204;-49
2022/03/07 09:35:09;;;;;;;9.00;8.30;;;;;;;4.21;40.62;99355.94;4127260;28;20213;-51
2022/03/07 09:37:12;;;;;;;8.60;7.88;;;;;;;4.54;39.78;99370.72;4139276;28;20209;-48